Time;durP1;ratioP1;P1;durP2;ratioP2;P2;SDS_P1;SDS_P2;PMS_P1;PMS_P2;Temp;Humidity;BMP_temperature;BMP_pressure;BME280_temperature;BME280_humidity;BME280_pressure;Samples;Min_cycle;Max_cycle;Signal;HPM_P1;HPM_P2
2022/04/26 04:21:42;;;;;;;4.43;2.60;;;17.30;50.10;;;;;;4951171;28;92719;-64
2022/04/26 04:24:07;;;;;;;3.72;2.35;;;17.30;50.10;;;;;;4950937;28;94558;-64
2022/04/26 04:26:33;;;;;;;3.95;2.70;;;17.30;50.10;;;;;;4950461;28;94293;-64
2022/04/26 04:28:59;;;;;;;5.15;2.50;;;17.40;50.10;;;;;;4950945;28;92843;-64
2022/04/26 04:31:24;;;;;;;4.45;2.40;;;17.30;50.00;;;;;;4951116;28;92587;-65
2022/04/26 04:33:50;;;;;;;3.08;2.35;;;17.30;50.00;;;;;;4951264;28;93370;-64
2022/04/26 04:36:15;;;;;;;3.22;2.38;;;17.30;50.00;;;;;;4951159;28;100561;-64
2022/04/26 04:38:41;;;;;;;3.22;2.38;;;17.30;51.00;;;;;;4951004;28;93164;-64
2022/04/26 04:41:08;;;;;;;3.10;2.47;;;17.30;50.00;;;;;;4951415;28;92966;-64
2022/04/26 04:43:34;;;;;;;5.63;3.00;;;17.30;50.00;;;;;;4949216;28;96830;-65
2022/04/26 04:46:00;;;;;;;6.03;2.75;;;17.30;50.00;;;;;;4950259;28;96177;-64
2022/04/26 04:48:26;;;;;;;4.50;2.75;;;17.30;49.90;;;;;;4950687;28;93169;-64
2022/04/26 04:50:52;;;;;;;4.78;2.67;;;17.30;50.00;;;;;;4952702;28;92753;-65
2022/04/26 04:53:20;;;;;;;4.20;2.53;;;17.30;50.00;;;;;;4951016;28;94182;-64
2022/04/26 04:55:46;;;;;;;4.38;2.40;;;17.30;50.00;;;;;;4950843;28;94356;-64
2022/04/26 04:58:12;;;;;;;4.30;2.55;;;17.30;50.00;;;;;;4951117;28;93148;-64
2022/04/26 05:00:37;;;;;;;5.10;2.63;;;17.30;50.00;;;;;;4950256;28;96125;-64
2022/04/26 05:03:04;;;;;;;4.57;2.65;;;17.30;50.00;;;;;;4950609;28;93046;-64
2022/04/26 05:05:29;;;;;;;5.80;2.70;;;17.30;50.00;;;;;;4949606;28;92641;-64
2022/04/26 05:07:55;;;;;;;4.13;2.55;;;17.30;50.00;;;;;;4948554;28;99345;-64
2022/04/26 05:10:20;;;;;;;3.95;2.63;;;17.30;50.10;;;;;;4950810;28;92535;-64
2022/04/26 05:12:46;;;;;;;3.67;2.33;;;17.30;50.00;;;;;;4949623;28;98520;-64
2022/04/26 05:15:12;;;;;;;4.45;2.60;;;17.30;50.00;;;;;;4949282;28;101292;-64
2022/04/26 05:17:38;;;;;;;4.82;2.45;;;17.30;50.00;;;;;;4949479;28;92732;-65
2022/04/26 05:20:05;;;;;;;4.43;2.45;;;17.30;49.90;;;;;;4952265;28;93928;-64
2022/04/26 05:22:30;;;;;;;3.33;2.50;;;17.30;49.90;;;;;;4952481;28;95562;-64
2022/04/26 05:24:59;;;;;;;4.90;2.55;;;17.30;50.00;;;;;;4953725;28;93922;-64
2022/04/26 05:27:30;;;;;;;3.63;2.25;;;17.30;50.00;;;;;;4952633;28;92638;-64
2022/04/26 05:29:56;;;;;;;5.40;2.53;;;17.30;50.00;;;;;;4953436;28;93246;-64
2022/04/26 05:32:25;;;;;;;5.93;2.63;;;17.30;50.00;;;;;;4951975;28;97162;-62
2022/04/26 05:35:00;;;;;;;3.65;2.28;;;17.30;50.00;;;;;;4953261;28;96413;-64
2022/04/26 05:37:26;;;;;;;8.50;2.65;;;17.30;50.00;;;;;;4953479;28;92576;-63
2022/04/26 05:39:53;;;;;;;7.53;2.20;;;17.30;50.00;;;;;;4954493;28;92554;-62
2022/04/26 05:42:18;;;;;;;64.28;5.43;;;17.30;50.00;;;;;;4952081;28;93985;-63
2022/04/26 05:44:44;;;;;;;25.55;4.03;;;17.30;50.40;;;;;;4952596;28;93911;-64
2022/04/26 05:47:10;;;;;;;11.05;2.75;;;17.30;50.30;;;;;;4953604;28;92911;-65
2022/04/26 05:49:36;;;;;;;23.67;3.20;;;17.40;50.20;;;;;;4953352;28;93868;-64
2022/04/26 05:52:03;;;;;;;13.43;3.08;;;17.40;50.20;;;;;;4934313;28;93373;-64
2022/04/26 05:54:29;;;;;;;18.42;2.90;;;17.40;50.20;;;;;;4952394;28;93926;-64
2022/04/26 05:56:54;;;;;;;15.05;3.30;;;17.40;50.20;;;;;;4952028;28;95465;-64
2022/04/26 05:59:20;;;;;;;8.80;2.30;;;17.40;50.30;;;;;;4952793;28;93052;-63
2022/04/26 06:01:47;;;;;;;19.40;3.60;;;17.30;50.30;;;;;;4952773;28;94242;-63
2022/04/26 06:04:12;;;;;;;16.95;3.63;;;17.40;50.60;;;;;;4952628;28;93979;-64
2022/04/26 06:06:38;;;;;;;18.67;3.83;;;17.50;50.70;;;;;;4952504;28;92733;-64
2022/04/26 06:09:04;;;;;;;14.43;4.03;;;17.70;50.50;;;;;;4952897;28;93753;-66
2022/04/26 06:11:30;;;;;;;16.20;3.72;;;18.00;50.10;;;;;;4951940;28;93060;-65
2022/04/26 06:13:56;;;;;;;11.10;2.97;;;18.10;49.80;;;;;;4952708;28;94073;-63
2022/04/26 06:16:21;;;;;;;13.05;3.30;;;18.20;49.50;;;;;;4935198;28;94279;-64
2022/04/26 06:18:47;;;;;;;13.30;3.45;;;18.20;49.40;;;;;;4952314;28;93038;-64
2022/04/26 06:21:13;;;;;;;13.02;3.42;;;18.20;49.30;;;;;;4950695;28;96762;-64
2022/04/26 06:23:39;;;;;;;12.20;3.00;;;18.30;49.40;;;;;;4951989;28;96336;-64
2022/04/26 06:26:05;;;;;;;16.88;3.65;;;18.30;49.50;;;;;;4951743;28;92534;-63
2022/04/26 06:28:30;;;;;;;15.25;3.30;;;18.40;50.20;;;;;;4952240;28;92618;-64
2022/04/26 06:30:56;;;;;;;12.45;3.20;;;18.40;50.30;;;;;;4950755;28;94084;-65
2022/04/26 06:33:22;;;;;;;12.98;3.45;;;18.50;50.60;;;;;;4952333;28;93865;-65
2022/04/26 06:35:48;;;;;;;12.18;3.78;;;18.50;53.10;;;;;;4954446;28;92434;-65
2022/04/26 06:38:16;;;;;;;11.57;3.05;;;18.50;54.60;;;;;;4953501;28;92175;-65
2022/04/26 06:40:41;;;;;;;13.75;3.35;;;18.50;54.90;;;;;;4953244;28;94678;-65
2022/04/26 06:43:09;;;;;;;11.23;3.30;;;18.60;55.00;;;;;;4952188;28;93842;-64
2022/04/26 06:45:35;;;;;;;13.07;4.18;;;18.60;55.10;;;;;;4950854;28;94987;-64
2022/04/26 06:48:00;;;;;;;9.52;4.43;;;18.70;54.40;;;;;;4951949;28;93389;-62
2022/04/26 06:50:25;;;;;;;9.70;4.20;;;18.80;54.20;;;;;;4933871;28;93238;-65
2022/04/26 06:52:51;;;;;;;11.65;4.32;;;18.90;53.80;;;;;;4951165;28;96366;-65
2022/04/26 06:55:17;;;;;;;8.65;5.07;;;19.00;53.70;;;;;;4951854;28;93048;-65
2022/04/26 06:57:42;;;;;;;14.25;4.50;;;19.00;53.50;;;;;;4951959;28;93060;-65
2022/04/26 07:00:09;;;;;;;8.13;4.47;;;19.00;53.40;;;;;;4951647;28;93030;-64
2022/04/26 07:02:35;;;;;;;7.55;4.35;;;19.00;53.30;;;;;;4951907;28;92683;-66
2022/04/26 07:05:01;;;;;;;12.50;4.40;;;19.00;53.20;;;;;;4950905;28;92532;-65
2022/04/26 07:07:27;;;;;;;10.77;4.35;;;18.90;53.20;;;;;;4951934;28;92590;-65
2022/04/26 07:09:52;;;;;;;8.10;4.13;;;18.90;53.20;;;;;;4950738;28;96350;-65
2022/04/26 07:12:18;;;;;;;9.20;4.03;;;18.90;53.20;;;;;;4951809;28;95052;-65
2022/04/26 07:14:43;;;;;;;8.00;4.10;;;18.90;53.00;;;;;;4951295;28;92909;-65
2022/04/26 07:17:10;;;;;;;13.18;4.05;;;18.80;53.10;;;;;;4951098;28;92879;-65
2022/04/26 07:19:35;;;;;;;9.20;4.30;;;18.80;53.00;;;;;;4951298;28;94269;-65
2022/04/26 07:22:04;;;;;;;10.02;4.00;;;18.70;52.80;;;;;;4950970;28;94095;-65
2022/04/26 07:24:34;;;;;;;15.00;4.35;;;18.70;54.00;;;;;;4952908;28;92668;-67
2022/04/26 07:27:00;;;;;;;7.85;3.50;;;18.70;55.20;;;;;;4953000;28;92307;-67
2022/04/26 07:29:26;;;;;;;7.30;3.72;;;18.70;55.30;;;;;;4951564;28;95520;-67
2022/04/26 07:31:52;;;;;;;9.00;3.97;;;18.70;55.20;;;;;;4950887;28;93885;-67
2022/04/26 07:34:21;;;;;;;7.78;3.90;;;18.70;55.00;;;;;;4950229;28;95687;-67
2022/04/26 07:36:49;;;;;;;7.10;3.60;;;18.70;54.90;;;;;;4951498;28;93034;-68
2022/04/26 07:39:17;;;;;;;9.27;4.03;;;18.70;54.70;;;;;;4950735;28;93070;-67
2022/04/26 07:41:49;;;;;;;7.00;3.10;;;18.70;54.80;;;;;;4950830;28;93936;-68
2022/04/26 07:44:15;;;;;;;10.02;3.85;;;18.60;55.00;;;;;;4950392;28;92531;-66
2022/04/26 07:46:44;;;;;;;5.15;3.38;;;18.60;54.90;;;;;;4950919;28;92449;-67
2022/04/26 07:49:13;;;;;;;6.50;3.60;;;18.60;54.40;;;;;;4950287;28;94441;-66
2022/04/26 07:51:40;;;;;;;6.57;3.08;;;18.60;54.10;;;;;;4951686;28;92954;-68
2022/04/26 07:54:06;;;;;;;8.52;3.30;;;18.50;53.90;;;;;;4951634;28;93163;-66
2022/04/26 07:56:33;;;;;;;6.22;3.45;;;18.50;53.80;;;;;;4952457;28;92755;-65
2022/04/26 07:59:01;;;;;;;7.82;3.55;;;18.50;53.80;;;;;;4951553;28;95657;-66
2022/04/26 08:01:28;;;;;;;5.35;3.30;;;18.50;53.70;;;;;;4951175;28;96273;-65
2022/04/26 08:03:54;;;;;;;8.38;3.20;;;18.40;53.60;;;;;;4951265;28;92956;-66
2022/04/26 08:06:20;;;;;;;6.97;3.40;;;18.40;53.60;;;;;;4950709;28;93408;-66
2022/04/26 08:08:45;;;;;;;6.20;3.55;;;18.40;53.60;;;;;;4951075;28;93444;-66
2022/04/26 08:11:13;;;;;;;8.40;3.63;;;18.40;53.60;;;;;;4950035;28;103971;-66
2022/04/26 08:13:40;;;;;;;7.90;3.20;;;18.40;53.50;;;;;;4950563;28;92509;-66
2022/04/26 08:16:06;;;;;;;7.07;3.38;;;18.30;53.40;;;;;;4951050;28;91857;-66
2022/04/26 08:18:32;;;;;;;6.78;3.50;;;18.30;53.40;;;;;;4950599;28;94087;-66
2022/04/26 08:20:57;;;;;;;5.20;3.05;;;18.30;53.30;;;;;;4949684;28;93117;-66
2022/04/26 08:23:23;;;;;;;6.78;3.05;;;18.30;53.30;;;;;;4948316;28;94877;-66
2022/04/26 08:28:33;;;;;;;4.32;3.08;;;18.20;53.10;;;;;;4949646;28;93574;-66
2022/04/26 08:31:01;;;;;;;4.13;2.83;;;18.20;53.20;;;;;;4950282;28;94231;-66
2022/04/26 08:33:28;;;;;;;4.90;3.17;;;18.20;53.10;;;;;;4951149;28;93039;-66
2022/04/26 08:35:54;;;;;;;5.75;3.17;;;18.20;53.10;;;;;;4950427;28;92729;-67
2022/04/26 08:38:20;;;;;;;5.50;2.95;;;18.20;53.00;;;;;;4949381;28;93544;-67
2022/04/26 08:40:46;;;;;;;5.35;3.08;;;18.20;52.80;;;;;;4949496;28;92842;-66
2022/04/26 08:43:12;;;;;;;5.78;3.40;;;18.20;52.80;;;;;;4949562;28;93118;-66
2022/04/26 08:45:38;;;;;;;6.15;3.17;;;18.10;52.70;;;;;;4949686;28;92618;-65
2022/04/26 08:51:05;;;;;;;6.47;3.17;;;18.10;52.60;;;;;;4950270;28;94808;-65
2022/04/26 08:53:33;;;;;;;6.55;3.30;;;18.10;52.50;;;;;;4948998;28;93036;-65
2022/04/26 08:56:01;;;;;;;4.57;3.10;;;18.10;52.50;;;;;;4950004;28;93006;-70
2022/04/26 08:58:32;;;;;;;4.45;3.10;;;18.10;52.40;;;;;;4949843;28;94659;-65
2022/04/26 09:01:13;;;;;;;6.65;3.30;;;18.10;52.30;;;;;;4949510;28;94726;-65
2022/04/26 09:03:54;;;;;;;4.72;3.00;;;18.10;52.20;;;;;;4949617;28;92955;-65
2022/04/26 09:06:21;;;;;;;8.00;3.40;;;18.00;52.20;;;;;;4949640;28;92061;-66
2022/04/26 09:08:48;;;;;;;4.65;2.85;;;18.00;52.20;;;;;;4950155;28;94453;-65
2022/04/26 09:11:28;;;;;;;6.70;3.30;;;18.00;52.10;;;;;;4950340;28;94153;-66
2022/04/26 09:13:54;;;;;;;6.60;3.30;;;18.00;52.00;;;;;;4947863;28;96231;-66
2022/04/26 09:16:22;;;;;;;5.68;3.17;;;18.00;52.00;;;;;;4949856;28;92577;-66
2022/04/26 09:18:59;;;;;;;7.43;2.88;;;18.00;52.00;;;;;;4949811;28;94593;-66
2022/04/26 09:21:29;;;;;;;6.30;3.20;;;18.00;52.00;;;;;;4949367;28;93857;-66
2022/04/26 09:24:06;;;;;;;5.65;3.00;;;18.00;52.00;;;;;;4949437;28;92598;-66
2022/04/26 09:26:39;;;;;;;4.70;3.38;;;18.00;52.00;;;;;;4949624;28;93698;-66
2022/04/26 09:29:08;;;;;;;3.88;2.83;;;17.90;51.90;;;;;;4948884;28;93289;-66
2022/04/26 09:31:38;;;;;;;4.63;2.97;;;17.90;51.90;;;;;;4949809;28;95994;-66
2022/04/26 09:34:11;;;;;;;6.35;2.95;;;18.00;51.80;;;;;;4949826;28;92990;-65
2022/04/26 09:36:49;;;;;;;5.10;2.88;;;18.00;51.80;;;;;;4950795;28;92519;-66
2022/04/26 09:39:19;;;;;;;5.22;2.85;;;17.90;51.70;;;;;;4949149;28;97334;-66
2022/04/26 09:41:51;;;;;;;5.43;2.83;;;17.90;51.70;;;;;;4949309;28;96474;-66
2022/04/26 09:44:28;;;;;;;5.20;3.00;;;17.90;51.70;;;;;;4949579;28;93107;-66
2022/04/26 09:46:54;;;;;;;5.60;2.60;;;18.00;51.70;;;;;;4949674;28;92946;-67
2022/04/26 09:49:22;;;;;;;3.38;2.60;;;18.00;51.70;;;;;;4948990;28;95225;-67
2022/04/26 09:51:55;;;;;;;4.47;2.90;;;18.00;51.60;;;;;;4948899;28;93953;-69
2022/04/26 09:54:22;;;;;;;6.57;2.90;;;18.00;51.60;;;;;;4948999;28;92781;-66
2022/04/26 09:56:48;;;;;;;4.25;2.72;;;18.00;51.50;;;;;;4950068;28;92272;-66
2022/04/26 09:59:18;;;;;;;4.45;2.70;;;18.00;51.30;;;;;;4948977;28;94419;-66
2022/04/26 10:01:47;;;;;;;3.50;2.45;;;18.10;51.30;;;;;;4948903;28;93936;-66
2022/04/26 10:04:17;;;;;;;4.55;2.88;;;18.10;51.10;;;;;;4949030;28;95361;-66
2022/04/26 10:06:46;;;;;;;3.83;2.55;;;18.10;51.10;;;;;;4952685;28;92534;-66
2022/04/26 10:09:13;;;;;;;5.30;2.83;;;18.10;50.90;;;;;;4953316;28;94420;-67
2022/04/26 10:11:39;;;;;;;3.47;2.60;;;18.10;50.90;;;;;;4952908;28;92673;-68
2022/04/26 10:14:07;;;;;;;4.90;2.90;;;18.10;50.80;;;;;;4952428;28;92551;-66
2022/04/26 10:16:33;;;;;;;4.40;2.42;;;18.10;50.70;;;;;;4952266;28;93231;-66
2022/04/26 10:19:07;;;;;;;5.25;2.70;;;18.10;50.60;;;;;;4951684;28;94323;-66
2022/04/26 10:21:38;;;;;;;4.25;2.50;;;18.10;50.60;;;;;;4952533;28;93751;-65
2022/04/26 10:24:23;;;;;;;4.53;2.67;;;18.10;50.50;;;;;;4951644;28;92741;-66
2022/04/26 10:26:51;;;;;;;4.53;2.90;;;18.10;50.40;;;;;;4952983;28;93029;-66
2022/04/26 10:29:19;;;;;;;4.18;2.65;;;18.10;50.40;;;;;;4952107;28;96933;-66
2022/04/26 10:31:56;;;;;;;3.85;2.55;;;18.10;50.40;;;;;;4951612;28;96201;-66
2022/04/26 10:34:23;;;;;;;3.75;2.20;;;18.10;50.40;;;;;;4951552;28;92853;-66
2022/04/26 10:37:00;;;;;;;2.92;2.53;;;18.10;50.40;;;;;;4952768;28;92964;-65
2022/04/26 10:39:45;;;;;;;4.32;2.65;;;18.20;50.40;;;;;;4951947;28;94383;-65
2022/04/26 10:42:16;;;;;;;4.18;2.55;;;18.10;50.20;;;;;;4952180;28;94825;-65
2022/04/26 10:44:46;;;;;;;3.20;2.25;;;18.20;50.20;;;;;;4952089;28;92979;-65
2022/04/26 10:47:12;;;;;;;3.70;2.47;;;18.20;50.10;;;;;;4953376;28;91763;-65
2022/04/26 10:49:42;;;;;;;5.15;2.72;;;18.20;50.10;;;;;;4952691;28;93848;-66
2022/04/26 10:52:22;;;;;;;3.05;2.58;;;18.20;50.00;;;;;;4952660;28;93954;-65
2022/04/26 10:54:51;;;;;;;4.22;2.55;;;18.20;49.90;;;;;;4951547;28;95501;-66
2022/04/26 10:57:22;;;;;;;3.17;2.30;;;18.20;49.90;;;;;;4952580;28;93089;-66
2022/04/26 10:59:51;;;;;;;3.28;2.40;;;18.20;49.80;;;;;;4952101;28;94197;-66
2022/04/26 11:02:19;;;;;;;4.32;2.47;;;18.20;49.80;;;;;;4952003;28;93062;-66
2022/04/26 11:04:45;;;;;;;3.75;2.40;;;18.20;49.70;;;;;;4953296;28;92832;-67
2022/04/26 11:07:16;;;;;;;4.75;2.75;;;18.20;49.70;;;;;;4953791;28;92473;-66
2022/04/26 11:09:49;;;;;;;3.75;2.60;;;18.20;49.70;;;;;;4952766;28;93674;-66
2022/04/26 11:12:19;;;;;;;3.03;2.22;;;18.20;49.80;;;;;;4952743;28;92966;-66
2022/04/26 11:14:46;;;;;;;4.22;2.50;;;18.20;49.80;;;;;;4951999;28;92862;-67
2022/04/26 11:17:12;;;;;;;3.30;2.00;;;18.20;49.80;;;;;;4951736;28;92825;-66
2022/04/26 11:19:38;;;;;;;3.55;2.17;;;18.20;49.80;;;;;;4950287;28;96851;-66
2022/04/26 11:22:09;;;;;;;3.72;2.58;;;18.10;49.90;;;;;;4952626;28;96344;-65
2022/04/26 11:30:06;;;;;;;3.00;2.15;;;18.10;49.80;;;;;;4951142;28;92519;-66
2022/04/26 11:32:38;;;;;;;3.83;2.20;;;18.10;49.80;;;;;;4950542;28;93955;-66
2022/04/26 11:35:04;;;;;;;2.97;2.20;;;18.10;49.70;;;;;;4951450;28;93067;-66
2022/04/26 11:37:30;;;;;;;3.55;2.70;;;18.10;49.70;;;;;;4951376;28;93260;-66
2022/04/26 11:39:56;;;;;;;3.83;2.22;;;18.10;49.90;;;;;;4951304;28;93286;-67
2022/04/26 11:42:21;;;;;;;3.40;2.30;;;18.10;49.90;;;;;;4952599;28;92789;-66
2022/04/26 11:45:07;;;;;;;3.65;2.30;;;18.10;49.90;;;;;;4951581;28;94868;-66
2022/04/26 11:47:50;;;;;;;3.55;2.17;;;18.10;49.70;;;;;;4951620;28;93044;-67
2022/04/26 11:50:21;;;;;;;2.97;2.40;;;18.10;49.70;;;;;;4951365;28;94032;-66
2022/04/26 11:52:49;;;;;;;4.32;2.17;;;18.20;49.80;;;;;;4952194;28;93913;-66
2022/04/26 11:55:32;;;;;;;3.30;2.20;;;18.20;49.90;;;;;;4951852;28;92533;-66
2022/04/26 11:58:18;;;;;;;3.63;1.93;;;18.20;49.70;;;;;;4951449;28;92547;-67
2022/04/26 12:00:56;;;;;;;3.88;2.40;;;18.10;49.80;;;;;;4950638;28;94031;-66
2022/04/26 12:03:25;;;;;;;2.83;2.17;;;18.20;49.90;;;;;;4951084;28;93846;-66
2022/04/26 12:05:55;;;;;;;3.30;2.10;;;18.20;49.70;;;;;;4951723;28;93300;-66
2022/04/26 12:08:22;;;;;;;3.35;2.00;;;18.20;49.70;;;;;;4952725;28;92670;-67
2022/04/26 12:10:48;;;;;;;3.17;1.92;;;18.20;50.70;;;;;;4949250;28;96803;-66
2022/04/26 12:13:14;;;;;;;2.53;2.13;;;18.20;49.70;;;;;;4950526;28;97203;-67
2022/04/26 12:15:40;;;;;;;2.95;2.22;;;18.20;49.60;;;;;;4950303;28;92414;-68
2022/04/26 12:18:14;;;;;;;2.50;1.98;;;18.20;49.60;;;;;;4951772;28;92501;-66
2022/04/26 12:21:02;;;;;;;4.03;2.42;;;18.20;49.50;;;;;;4950207;28;95214;-67
2022/04/26 12:23:30;;;;;;;3.22;2.20;;;18.20;49.50;;;;;;4950769;28;93710;-66
2022/04/26 12:25:56;;;;;;;3.85;2.17;;;18.20;49.60;;;;;;4951406;28;92727;-67
2022/04/26 12:28:23;;;;;;;2.50;2.03;;;18.20;49.50;;;;;;4950879;28;92225;-67
2022/04/26 12:30:48;;;;;;;2.58;2.00;;;18.20;49.50;;;;;;4951044;28;94516;-67
2022/04/26 12:33:36;;;;;;;2.58;2.10;;;18.20;49.60;;;;;;4950838;28;93835;-67
2022/04/26 12:36:05;;;;;;;2.40;2.20;;;18.20;49.40;;;;;;4949202;28;94914;-67
2022/04/26 12:38:47;;;;;;;3.42;2.30;;;18.20;49.50;;;;;;4951645;28;92524;-67
2022/04/26 12:41:13;;;;;;;4.50;1.90;;;18.20;49.40;;;;;;4952080;28;95286;-67
2022/04/26 12:43:39;;;;;;;2.35;2.00;;;18.20;49.40;;;;;;4951257;28;94260;-67
2022/04/26 12:46:08;;;;;;;2.92;2.17;;;18.20;49.50;;;;;;4951766;28;92543;-67
2022/04/26 12:51:27;;;;;;;2.83;2.38;;;18.20;49.30;;;;;;4950541;28;92743;-67
2022/04/26 12:54:05;;;;;;;3.60;2.00;;;18.20;49.30;;;;;;4951520;28;94926;-66
2022/04/26 12:56:32;;;;;;;2.30;1.90;;;18.20;50.30;;;;;;4952219;28;93102;-67
2022/04/26 12:58:58;;;;;;;3.03;1.95;;;18.20;49.30;;;;;;4950721;28;92588;-66
2022/04/26 13:01:24;;;;;;;3.20;2.00;;;18.20;49.30;;;;;;4949754;28;96500;-66
2022/04/26 13:03:49;;;;;;;2.75;1.90;;;18.30;49.30;;;;;;4951844;28;96494;-67
2022/04/26 13:06:17;;;;;;;5.03;2.10;;;18.20;49.20;;;;;;4950875;28;92747;-67
2022/04/26 13:08:45;;;;;;;2.83;1.70;;;18.30;49.20;;;;;;4950661;28;92758;-67
2022/04/26 13:11:12;;;;;;;3.67;2.20;;;18.30;49.10;;;;;;4949914;28;94270;-67
2022/04/26 13:13:42;;;;;;;2.40;2.13;;;18.30;49.20;;;;;;4949885;28;94598;-67
2022/04/26 13:16:08;;;;;;;1.98;1.77;;;18.30;49.10;;;;;;4950109;28;92898;-67
2022/04/26 13:18:34;;;;;;;2.85;2.08;;;18.30;49.00;;;;;;4950265;28;91941;-67
2022/04/26 13:21:01;;;;;;;3.38;1.90;;;18.30;49.00;;;;;;4950823;28;94470;-67
2022/04/26 13:23:30;;;;;;;3.63;1.92;;;18.30;48.90;;;;;;4949958;28;93830;-65
2022/04/26 13:25:57;;;;;;;2.30;2.00;;;18.30;48.90;;;;;;4949005;28;96158;-67
2022/04/26 13:28:23;;;;;;;2.78;1.85;;;18.30;48.90;;;;;;4949991;28;92909;-66
2022/04/26 13:30:49;;;;;;;2.50;2.13;;;18.30;48.80;;;;;;4949897;28;95050;-66
2022/04/26 13:33:15;;;;;;;2.63;1.95;;;18.30;48.90;;;;;;4949545;28;93621;-67
2022/04/26 13:35:41;;;;;;;3.08;1.90;;;18.40;48.90;;;;;;4932591;28;93144;-67
2022/04/26 13:38:11;;;;;;;2.55;1.98;;;18.30;48.80;;;;;;4950322;28;92732;-67
2022/04/26 13:40:38;;;;;;;3.95;2.10;;;18.40;48.80;;;;;;4952471;28;93059;-67
2022/04/26 13:43:05;;;;;;;2.45;1.90;;;18.40;48.90;;;;;;4955021;28;94031;-66
2022/04/26 13:45:32;;;;;;;3.72;2.03;;;18.30;48.80;;;;;;4954820;28;92695;-66
2022/04/26 13:47:59;;;;;;;2.20;1.90;;;18.40;48.90;;;;;;4954193;28;93002;-66
2022/04/26 13:50:25;;;;;;;2.30;1.75;;;18.30;48.80;;;;;;4951584;28;96488;-69
2022/04/26 13:52:50;;;;;;;2.97;2.13;;;18.30;48.80;;;;;;4952697;28;96473;-66
2022/04/26 13:55:17;;;;;;;2.15;1.90;;;18.40;48.90;;;;;;4953866;28;92948;-66
2022/04/26 13:57:44;;;;;;;2.63;2.10;;;18.40;48.80;;;;;;4954056;28;92650;-67
2022/04/26 14:00:11;;;;;;;2.25;2.00;;;18.30;48.80;;;;;;4953470;28;94980;-66
2022/04/26 14:02:40;;;;;;;2.80;1.90;;;18.30;48.80;;;;;;4953107;28;94520;-66
2022/04/26 14:05:06;;;;;;;2.53;2.00;;;18.30;48.80;;;;;;4953278;28;92522;-66
2022/04/26 14:07:32;;;;;;;2.30;2.03;;;18.30;48.80;;;;;;4954215;28;92173;-66
2022/04/26 14:09:57;;;;;;;2.28;2.03;;;18.30;48.80;;;;;;4935507;28;93370;-66
2022/04/26 14:12:23;;;;;;;2.10;1.90;;;18.30;48.90;;;;;;4953293;28;103266;-66
2022/04/26 14:23:01;;;;;;;2.17;1.92;;;18.30;48.90;;;;;;4952967;28;92838;-66
2022/04/26 14:25:26;;;;;;;2.97;1.88;;;18.20;48.80;;;;;;4953260;28;93143;-66
2022/04/26 14:27:52;;;;;;;3.33;2.10;;;18.20;48.80;;;;;;4954548;28;92962;-67
2022/04/26 14:30:18;;;;;;;2.30;1.88;;;18.20;48.80;;;;;;4952388;28;93893;-66
2022/04/26 14:32:44;;;;;;;3.28;1.80;;;18.20;48.80;;;;;;4953024;28;94024;-67
2022/04/26 14:35:10;;;;;;;3.30;1.75;;;18.20;48.80;;;;;;4952809;28;92727;-66
2022/04/26 14:37:36;;;;;;;3.40;2.15;;;18.20;48.80;;;;;;4953295;28;92811;-68
2022/04/26 14:40:03;;;;;;;2.20;2.00;;;18.20;48.70;;;;;;4951737;28;95494;-66
2022/04/26 14:42:30;;;;;;;2.53;1.90;;;18.20;48.70;;;;;;4952589;28;97591;-67
2022/04/26 14:44:57;;;;;;;2.45;1.98;;;18.20;48.70;;;;;;4954488;28;94096;-66
2022/04/26 14:47:26;;;;;;;2.83;1.80;;;18.20;48.70;;;;;;4954410;28;92562;-68
2022/04/26 14:49:59;;;;;;;2.22;1.73;;;18.30;48.80;;;;;;4954039;28;94976;-67
2022/04/26 14:52:25;;;;;;;2.30;2.00;;;18.30;48.70;;;;;;4951787;28;95018;-67
2022/04/26 14:54:51;;;;;;;2.20;1.90;;;18.30;48.80;;;;;;4951796;28;92910;-66
2022/04/26 14:57:18;;;;;;;3.53;1.83;;;18.30;48.70;;;;;;4952978;28;92214;-66
2022/04/26 14:59:47;;;;;;;2.70;1.90;;;18.30;48.60;;;;;;4951837;28;93182;-67
2022/04/26 15:02:17;;;;;;;2.90;2.20;;;18.30;48.70;;;;;;4952268;28;94256;-66
2022/04/26 15:04:44;;;;;;;2.78;2.08;;;18.30;48.70;;;;;;4951413;28;95467;-67
2022/04/26 15:07:10;;;;;;;2.83;1.90;;;18.30;48.70;;;;;;4952756;28;92473;-67
2022/04/26 15:09:45;;;;;;;1.90;1.70;;;18.30;48.70;;;;;;4933373;28;93291;-67
2022/04/26 15:17:43;;;;;;;2.90;1.80;;;18.30;48.60;;;;;;4953451;28;93037;-67
2022/04/26 15:20:10;;;;;;;4.22;2.10;;;18.30;48.60;;;;;;4951072;28;94420;-70
2022/04/26 15:22:37;;;;;;;3.35;1.88;;;18.30;48.50;;;;;;4952678;28;94966;-67
2022/04/26 15:25:06;;;;;;;2.45;1.60;;;18.30;48.40;;;;;;4951965;28;92457;-66
2022/04/26 15:27:32;;;;;;;3.05;1.98;;;18.30;49.30;;;;;;4952226;28;93119;-67
2022/04/26 15:29:58;;;;;;;2.20;1.73;;;18.40;48.40;;;;;;4950639;28;96688;-67
2022/04/26 15:32:25;;;;;;;2.28;1.52;;;18.30;48.30;;;;;;4951672;28;96256;-67
2022/04/26 15:34:51;;;;;;;2.42;1.77;;;18.40;48.40;;;;;;4952147;28;92546;-67
2022/04/26 15:37:17;;;;;;;2.00;1.80;;;18.40;48.20;;;;;;4951996;28;92912;-66
2022/04/26 15:39:43;;;;;;;2.28;1.85;;;18.40;48.30;;;;;;4952081;28;94276;-67
2022/04/26 15:42:09;;;;;;;2.30;1.90;;;18.40;48.20;;;;;;4952575;28;93992;-68
2022/04/26 15:44:35;;;;;;;2.60;1.85;;;18.50;48.20;;;;;;4951422;28;92527;-67
2022/04/26 15:47:01;;;;;;;2.03;1.73;;;18.50;48.20;;;;;;4952768;28;92063;-67
2022/04/26 15:49:26;;;;;;;2.95;1.88;;;18.50;48.10;;;;;;4951293;28;94551;-67
2022/04/26 15:51:56;;;;;;;1.90;1.70;;;18.50;48.10;;;;;;4951578;28;94001;-67
2022/04/26 15:54:21;;;;;;;2.30;1.90;;;18.60;48.20;;;;;;4949759;28;95332;-67
2022/04/26 15:56:47;;;;;;;2.40;1.60;;;18.60;48.10;;;;;;4952573;28;92836;-67
2022/04/26 15:59:13;;;;;;;1.98;1.75;;;18.60;49.00;;;;;;4952409;28;93441;-66
2022/04/26 16:01:39;;;;;;;5.07;1.98;;;18.70;48.00;;;;;;4951590;28;93985;-66
2022/04/26 16:04:06;;;;;;;3.25;1.80;;;18.70;47.90;;;;;;4951784;28;93027;-66
2022/04/26 16:06:37;;;;;;;2.92;1.75;;;18.80;47.70;;;;;;4952053;28;92598;-66
2022/04/26 16:22:49;;;;;;;9.48;2.80;;;19.10;48.90;;;;;;4951022;28;94723;-67
2022/04/26 16:25:15;;;;;;;6.45;2.60;;;19.10;49.20;;;;;;4951500;28;93028;-67
2022/04/26 16:27:42;;;;;;;6.78;2.40;;;19.20;49.30;;;;;;4952709;28;92914;-66
2022/04/26 16:30:09;;;;;;;9.07;2.70;;;19.10;49.40;;;;;;4952252;28;95922;-67
2022/04/26 16:32:34;;;;;;;5.70;2.63;;;19.20;49.40;;;;;;4950527;28;93983;-67
2022/04/26 16:35:01;;;;;;;10.20;2.50;;;19.10;49.50;;;;;;4950418;28;92869;-66
2022/04/26 16:37:28;;;;;;;7.97;2.90;;;19.20;49.50;;;;;;4952022;28;92282;-66
2022/04/26 16:39:53;;;;;;;7.82;2.60;;;19.20;49.50;;;;;;4950644;28;96691;-67
2022/04/26 16:42:20;;;;;;;12.60;3.00;;;19.20;49.30;;;;;;4933465;28;98095;-66
2022/04/26 16:44:46;;;;;;;7.60;2.30;;;19.20;49.30;;;;;;4949763;28;95194;-68
2022/04/26 16:47:11;;;;;;;8.25;2.50;;;19.20;49.40;;;;;;4950964;28;93047;-68
2022/04/26 16:49:39;;;;;;;12.43;3.00;;;19.10;49.30;;;;;;4950444;28;98492;-68
2022/04/26 16:52:05;;;;;;;12.10;2.55;;;19.20;49.30;;;;;;4950438;28;94676;-67
2022/04/26 16:54:31;;;;;;;8.73;2.67;;;19.10;49.30;;;;;;4950016;28;92520;-66
2022/04/26 16:56:57;;;;;;;8.93;3.10;;;19.10;49.40;;;;;;4950691;28;92953;-67
2022/04/26 16:59:24;;;;;;;8.88;2.70;;;19.10;49.40;;;;;;4949790;28;94057;-67
2022/04/26 17:01:51;;;;;;;9.43;2.72;;;19.10;49.40;;;;;;4950512;28;94754;-66
2022/04/26 17:04:18;;;;;;;8.57;2.78;;;19.10;49.40;;;;;;4950999;28;93201;-67
2022/04/26 17:06:45;;;;;;;5.32;2.30;;;19.10;49.40;;;;;;4950707;28;93223;-67
2022/04/26 17:09:11;;;;;;;11.30;2.85;;;19.10;49.60;;;;;;4948769;28;96828;-65
2022/04/26 17:11:43;;;;;;;5.68;2.40;;;19.10;49.70;;;;;;4949741;28;96167;-65
2022/04/26 17:14:19;;;;;;;7.10;2.50;;;19.10;49.50;;;;;;4949992;28;92754;-66
2022/04/26 17:16:47;;;;;;;3.35;2.20;;;19.10;49.30;;;;;;4949447;28;93950;-66
2022/04/26 17:19:14;;;;;;;5.35;2.20;;;19.10;49.20;;;;;;4947994;28;94059;-66
2022/04/26 17:21:40;;;;;;;5.85;2.33;;;19.20;49.10;;;;;;4948853;28;94123;-65
2022/04/26 17:25:13;;;;;;;6.60;2.60;;;19.10;49.10;;;;;;4949706;28;92821;-66
2022/04/26 17:26:52;;;;;;;5.07;2.05;;;19.10;49.00;;;;;;4949909;28;91791;-66
2022/04/26 17:29:20;;;;;;;6.18;2.20;;;19.10;48.90;;;;;;4949315;28;94170;-67
2022/04/26 17:31:50;;;;;;;4.60;2.10;;;19.10;48.90;;;;;;4948816;28;93891;-66
2022/04/26 17:34:16;;;;;;;7.47;2.50;;;19.10;48.80;;;;;;4947730;28;95256;-66
2022/04/26 17:36:45;;;;;;;5.47;2.10;;;19.10;48.80;;;;;;4949747;28;92920;-66
2022/04/26 17:39:11;;;;;;;6.00;2.05;;;19.10;48.80;;;;;;4949241;28;94356;-67
2022/04/26 17:41:38;;;;;;;3.75;2.13;;;19.10;48.80;;;;;;4949405;28;92951;-66
2022/04/26 17:44:05;;;;;;;4.88;2.20;;;19.10;48.70;;;;;;4950054;28;92526;-66
2022/04/26 17:46:31;;;;;;;5.60;2.10;;;19.10;48.60;;;;;;4949282;28;93920;-66
2022/04/26 17:48:56;;;;;;;2.78;2.00;;;19.20;48.50;;;;;;4949601;28;94103;-67
2022/04/26 17:51:22;;;;;;;4.40;2.15;;;19.20;48.60;;;;;;4950562;28;93815;-66